| time (UTC) | temp C | wind direction | speed KPH | gust KPH | rain 1hr cm | rain 24hr cm | rain mn cm | humidity % | barometer mb |
| 20260906191543 | 28 | 232 | 1.6 | 12.9 | 0.00 | 0.00 | 0.00 | 56 | 1018.6 |
| 20260906190040 | 28 | 135 | 3.2 | 17.7 | 0.00 | 0.00 | 0.00 | 56 | 1018.7 |
| 20260906184538 | 28 | 138 | 3.2 | 14.5 | 0.00 | 0.00 | 0.00 | 57 | 1019.0 |
| 20260906183041 | 28 | 124 | 3.2 | 14.5 | 0.00 | 0.00 | 0.00 | 59 | 1019.0 |
| 20260906181539 | 27 | 150 | 3.2 | 12.9 | 0.00 | 0.00 | 0.00 | 62 | 1019.2 |
| 20260906180038 | 26 | 179 | 3.2 | 6.4 | 0.00 | 0.00 | 0.00 | 65 | 1019.3 |
| 20260906174534 | 26 | 317 | 1.6 | 6.4 | 0.00 | 0.00 | 0.00 | 67 | 1019.5 |
| 20260906173023 | 25 | 250 | 1.6 | 9.7 | 0.00 | 0.00 | 0.00 | 68 | 1019.7 |
| 20260906171518 | 24 | 244 | 3.2 | 11.3 | 0.00 | 0.00 | 0.00 | 69 | 1019.9 |
| 20260906170017 | 24 | 247 | 3.2 | 9.7 | 0.00 | 0.00 | 0.00 | 68 | 1020.1 |
| 20260906164528 | 24 | 260 | 3.2 | 8.0 | 0.00 | 0.00 | 0.00 | 68 | 1020.2 |
| 20260906163019 | 24 | 238 | 4.8 | 11.3 | 0.00 | 0.00 | 0.00 | 69 | 1020.5 |
| 20260906161507 | 23 | 257 | 4.8 | 8.0 | 0.00 | 0.00 | 0.00 | 69 | 1020.5 |
| 20260906160004 | 23 | 288 | 4.8 | 12.9 | 0.00 | 0.00 | 0.00 | 68 | 1020.4 |
| 20260906154604 | 23 | 250 | 3.2 | 8.0 | 0.00 | 0.00 | 0.00 | 69 | 1020.2 |
| 20260906153100 | 23 | 194 | 1.6 | 9.7 | 0.00 | 0.00 | 0.00 | 69 | 1020.4 |
| 20260906151555 | 23 | 148 | 0.0 | 8.0 | 0.00 | 0.00 | 0.00 | 72 | 1020.4 |
| 20260906150100 | 22 | 142 | 4.8 | 11.3 | 0.00 | 0.00 | 0.00 | 73 | 1020.3 |
| 20260906144600 | 20 | 143 | 3.2 | 9.7 | 0.00 | 0.00 | 0.00 | 80 | 1020.5 |
| 20260906143044 | 19 | 86 | 0.0 | 0.0 | 0.00 | 0.00 | 0.00 | 86 | 1020.5 |
| 20260906141545 | 17 | 86 | 0.0 | 0.0 | 0.00 | 0.00 | 0.00 | 88 | 1020.6 |
| 20260906140039 | 16 | 86 | 0.0 | 4.8 | 0.00 | 0.00 | 0.00 | 91 | 1020.6 |
| 20260906134531 | 16 | 86 | 0.0 | 4.8 | 0.00 | 0.00 | 0.00 | 94 | 1020.7 |
| 20260906133027 | 15 | 101 | 0.0 | 4.8 | 0.00 | 0.00 | 0.00 | 96 | 1020.9 |
| 20260906131527 | 14 | 92 | 0.0 | 4.8 | 0.00 | 0.00 | 0.00 | 98 | 1020.6 |
| 20260906130035 | 13 | 71 | 1.6 | 4.8 | 0.00 | 0.00 | 0.00 | 98 | 1020.7 |
| 20260906124525 | 13 | 103 | 1.6 | 6.4 | 0.00 | 0.00 | 0.00 | 99 | 1020.7 |
| 20260906123017 | 12 | 129 | 0.0 | 4.8 | 0.00 | 0.00 | 0.00 | 98 | 1020.5 |
| 20260906121514 | 12 | 129 | 3.2 | 6.4 | 0.00 | 0.00 | 0.00 | 98 | 1020.4 |
| 20260906120016 | 11 | 111 | 3.2 | 4.8 | 0.00 | 0.00 | 0.00 | 97 | 1020.3 |
| 20260906114527 | 11 | 94 | 0.0 | 1.6 | 0.00 | 0.00 | 0.00 | 97 | 1020.6 |
| 20260906113011 | 11 | 94 | 0.0 | 3.2 | 0.00 | 0.00 | 0.00 | 97 | 1020.3 |
| 20260906111509 | 12 | 110 | 0.0 | 4.8 | 0.00 | 0.00 | 0.00 | 97 | 1020.1 |
| 20260906110010 | 12 | 113 | 1.6 | 4.8 | 0.00 | 0.00 | 0.00 | 97 | 1019.8 |
| 20260906104515 | 12 | 83 | 0.0 | 4.8 | 0.00 | 0.00 | 0.00 | 97 | 1020.0 |
| 20260906103009 | 11 | 82 | 0.0 | 4.8 | 0.00 | 0.00 | 0.00 | 97 | 1019.8 |
| 20260906101506 | 12 | 110 | 3.2 | 4.8 | 0.00 | 0.00 | 0.00 | 96 | 1019.6 |
| 20260906100004 | 12 | 113 | 4.8 | 9.7 | 0.00 | 0.00 | 0.00 | 97 | 1019.4 |
| 20260906094506 | 12 | 101 | 8.0 | 12.9 | 0.00 | 0.00 | 0.00 | 96 | 1019.4 |
| 20260906093107 | 12 | 125 | 4.8 | 11.3 | 0.00 | 0.00 | 0.00 | 96 | 1019.4 |
| 20260906091557 | 12 | 121 | 0.0 | 0.0 | 0.00 | 0.00 | 0.00 | 96 | 1019.5 |
| 20260906090057 | 12 | 119 | 0.0 | 0.0 | 0.00 | 0.00 | 0.00 | 96 | 1019.9 |
| 20260906084556 | 12 | 119 | 0.0 | 0.0 | 0.00 | 0.00 | 0.00 | 95 | 1020.1 |
| 20260906083055 | 12 | 120 | 0.0 | 3.2 | 0.00 | 0.00 | 0.00 | 94 | 1019.9 |
| 20260906081555 | 12 | 121 | 0.0 | 3.2 | 0.00 | 0.00 | 0.00 | 94 | 1019.8 |
| 20260906080054 | 12 | 127 | 0.0 | 3.2 | 0.00 | 0.00 | 0.00 | 93 | 1020.0 |
| 20260906074553 | 13 | 127 | 0.0 | 0.0 | 0.00 | 0.00 | 0.00 | 94 | 1019.9 |
| 20260906073050 | 13 | 127 | 0.0 | 0.0 | 0.00 | 0.00 | 0.00 | 94 | 1019.8 |
| 20260906071547 | 13 | 127 | 0.0 | 0.0 | 0.00 | 0.00 | 0.00 | 95 | 1020.0 |
| 20260906070047 | 13 | 127 | 0.0 | 1.6 | 0.00 | 0.00 | 0.00 | 93 | 1020.0 |
| 20260906064545 | 13 | 127 | 1.6 | 4.8 | 0.00 | 0.00 | 0.00 | 92 | 1020.1 |
| 20260906063043 | 13 | 127 | 0.0 | 3.2 | 0.00 | 0.00 | 0.00 | 92 | 1020.2 |
| 20260906061542 | 13 | 127 | 3.2 | 6.4 | 0.00 | 0.00 | 0.00 | 91 | 1020.4 |
| 20260906060040 | 14 | 82 | 0.0 | 0.0 | 0.00 | 0.00 | 0.00 | 92 | 1020.3 |
| 20260906054537 | 14 | 82 | 0.0 | 0.0 | 0.00 | 0.00 | 0.00 | 92 | 1020.2 |
| 20260906053035 | 15 | 82 | 0.0 | 1.6 | 0.00 | 0.00 | 0.00 | 90 | 1020.0 |
| 20260906051533 | 15 | 76 | 0.0 | 1.6 | 0.00 | 0.00 | 0.00 | 89 | 1020.0 |
| 20260906050033 | 15 | 109 | 4.8 | 9.7 | 0.00 | 0.00 | 0.00 | 89 | 1019.5 |
| 20260906044535 | 15 | 107 | 3.2 | 6.4 | 0.00 | 0.00 | 0.00 | 87 | 1019.7 |
| 20260906043039 | 15 | 113 | 0.0 | 0.0 | 0.00 | 0.00 | 0.00 | 87 | 1019.7 |
| 20260906041537 | 16 | 113 | 0.0 | 0.0 | 0.00 | 0.00 | 0.00 | 87 | 1019.6 |
| 20260906040035 | 16 | 217 | 0.0 | 0.0 | 0.00 | 0.00 | 0.00 | 86 | 1019.6 |
| 20260906034531 | 16 | 217 | 0.0 | 3.2 | 0.00 | 0.00 | 0.00 | 85 | 1019.7 |
| 20260906033031 | 16 | 143 | 0.0 | 0.0 | 0.00 | 0.00 | 0.00 | 85 | 1019.7 |
| 20260906031544 | 16 | 143 | 0.0 | 0.0 | 0.00 | 0.00 | 0.00 | 83 | 1019.7 |
| 20260906030031 | 17 | 143 | 0.0 | 0.0 | 0.00 | 0.00 | 0.00 | 82 | 1019.5 |
| 20260906024529 | 17 | 138 | 0.0 | 6.4 | 0.00 | 0.00 | 0.00 | 83 | 1019.2 |
| 20260906023031 | 17 | 172 | 1.6 | 6.4 | 0.00 | 0.00 | 0.00 | 81 | 1019.0 |
| 20260906021530 | 18 | 138 | 3.2 | 8.0 | 0.00 | 0.00 | 0.00 | 80 | 1018.6 |
| 20260906020038 | 18 | 157 | 3.2 | 8.0 | 0.00 | 0.00 | 0.00 | 80 | 1018.9 |
| 20260906014534 | 18 | 142 | 1.6 | 8.0 | 0.00 | 0.00 | 0.00 | 78 | 1018.7 |
| 20260906013029 | 19 | 159 | 3.2 | 9.7 | 0.00 | 0.00 | 0.00 | 80 | 1018.5 |
| 20260906011528 | 19 | 157 | 3.2 | 9.7 | 0.00 | 0.00 | 0.00 | 81 | 1018.4 |
| 20260906010027 | 20 | 165 | 4.8 | 12.9 | 0.00 | 0.00 | 0.00 | 81 | 1018.2 |
| 20260906004527 | 20 | 155 | 3.2 | 8.0 | 0.00 | 0.00 | 0.00 | 81 | 1018.1 |
| 20260906003028 | 21 | 159 | 3.2 | 6.4 | 0.00 | 0.00 | 0.00 | 79 | 1018.0 |
| 20260906001531 | 22 | 154 | 1.6 | 6.4 | 0.00 | 0.00 | 0.00 | 78 | 1017.8 |
| 20260906000027 | 22 | 156 | 0.0 | 4.8 | 0.00 | 0.00 | 0.00 | 75 | 1017.8 |
| 20260905234526 | 23 | 217 | 0.0 | 3.2 | 0.00 | 0.00 | 0.00 | 76 | 1017.7 |
| 20260905233031 | 23 | 250 | 0.0 | 3.2 | 0.00 | 0.00 | 0.00 | 75 | 1017.7 |
| 20260905231525 | 23 | 250 | 3.2 | 6.4 | 0.00 | 0.00 | 0.00 | 72 | 1017.8 |
| 20260905230024 | 24 | 249 | 1.6 | 8.0 | 0.00 | 0.00 | 0.00 | 70 | 1018.1 |
| 20260905224523 | 25 | 246 | 0.0 | 4.8 | 0.00 | 0.00 | 0.00 | 70 | 1017.9 |
| 20260905223033 | 25 | 250 | 4.8 | 8.0 | 0.00 | 0.00 | 0.00 | 69 | 1018.2 |
| 20260905221536 | 25 | 233 | 4.8 | 9.7 | 0.00 | 0.00 | 0.00 | 70 | 1018.4 |
| 20260905220019 | 25 | 253 | 3.2 | 8.0 | 0.00 | 0.00 | 0.00 | 68 | 1018.5 |
| 20260905214517 | 25 | 261 | 3.2 | 9.7 | 0.00 | 0.00 | 0.00 | 68 | 1018.5 |
| 20260905213016 | 25 | 281 | 8.0 | 16.1 | 0.00 | 0.00 | 0.00 | 70 | 1018.9 |
| 20260905211534 | 25 | 228 | 3.2 | 11.3 | 0.00 | 0.00 | 0.00 | 68 | 1018.7 |
| 20260905210015 | 25 | 256 | 4.8 | 12.9 | 0.00 | 0.00 | 0.00 | 67 | 1018.7 |
| 20260905204514 | 25 | 209 | 3.2 | 8.0 | 0.00 | 0.00 | 0.00 | 64 | 1018.8 |
| 20260905203014 | 25 | 265 | 4.8 | 9.7 | 0.00 | 0.00 | 0.00 | 66 | 1018.9 |
| 20260905201513 | 25 | 261 | 3.2 | 11.3 | 0.00 | 0.00 | 0.00 | 67 | 1019.0 |
| 20260905200008 | 24 | 246 | 1.6 | 9.7 | 0.00 | 0.00 | 0.00 | 71 | 1019.1 |
| 20260905194508 | 23 | 260 | 4.8 | 11.3 | 0.00 | 0.00 | 0.00 | 68 | 1019.3 |
| 20260905193008 | 24 | 248 | 1.6 | 11.3 | 0.00 | 0.00 | 0.00 | 68 | 1019.4 |